AirNav   Everest Fuels
 
 356 users online  

DC08 WHC Heliport
Washington, District of Columbia, USA

GOING TO WASHINGTON?


FAA INFORMATION EFFECTIVE 21 MAY 2020

Location

FAA Identifier: DC08
Lat/Long: 38-55-43.9000N 077-00-59.9000W
38-55.731667N 077-00.998333W
38.9288611,-77.0166389
(estimated)
Elevation: 205 ft. / 62 m (estimated)
Variation: 11W (2005)
Time zone: UTC -4 (UTC -5 during Standard Time)
Zip code: 20010

Heliport Operations

Heliport use: Private use, MEDICAL USE.
Activation date: 08/1979
Control tower: no
ARTCC: WASHINGTON CENTER
FSS: LEESBURG FLIGHT SERVICE STATION
NOTAMs facility: FDC (NOTAM-D service not available)
Attendance: CONTINUOUS
Wind indicator: yes
Segmented circle: no
Lights: SS-SR

Heliport Communications

UNICOM: 123.05
WX ASOS at DCA (5 nm S): 132.65 (703-412-8140)
WX AWOS-3 at CGS (5 nm NE): 121.225 (301-864-5497)
WX AWOS-3 at FME (15 nm NE): 123.925
WX AWOS-3PT at GAI (16 nm NW): 128.275 (301-977-2971)
  • UHF 462.95 PL77.

Nearby radio navigation aids

VOR radial/distance  VOR name  Freq  Var
DCAr022/4.3WASHINGTON VOR/DME111.0009W
ADWr326/10.1ANDREWS VORTAC113.1010W
OTTr326/18.5NOTTINGHAM VORTAC113.7010W
AMLr099/21.0ARMEL VOR/DME113.5008W
BALr240/22.0BALTIMORE VORTAC115.1011W
FDKr158/(33.5)FREDERICK VOR109.0008W
EMIr191/34.0WESTMINSTER VORTAC117.9008W
BRVr033/38.9BROOKE VORTAC114.5009W

 
NDB name  Hdg/Dist  Freq  Var  ID
GEORGETOWN100/5.032309WGTN --. - -.
OXONN014/9.833211WDCA -.. -.-. .-
DAVEE024/16.622309WDAA -.. .- .-
ELLICOTT218/24.237111WFND ..-. -. -..

Heliport Services

Runway Information

Helipad H2

Dimensions: 100 x 100 ft. / 30 x 30 m
Surface: concrete
Runway edge lights: PERI
Traffic pattern: leftleft
Obstructions: fence

Helipad H1

Dimensions: 70 x 70 ft. / 21 x 21 m
Surface: concrete, in good condition
ROOFTOP.
Runway edge lights: PERI
Latitude: 38-55.731667N
Longitude: 077-00.998333W
Elevation: 205.0 ft.
Traffic pattern: leftleft

Heliport Ownership and Management from official FAA records

Ownership: Privately-owned
Owner: WASHINGTON HOSPITAL CENTER
110 IRVING ST NW
WASHINGTON, DC 20010
Phone 202-877-7234
Manager: GLENN BROWN
4390 PARLIMENT PL
LANHAM, MD 20706
Phone 202-877-7000

Additional Remarks

H2 HAS GROUND LEVEL HELICOPTER PARKING.
PRIOR PERMISSION REQUIRED -800-824-6814
PPR 202-877-7000.
H1 HELIPAD ROOFTOP MAX GROSS WEIGHT 11000 LBS.
FOR CD CTC POTOMAC APCH AT 866-599-3874.

Instrument Procedures

There are no published instrument procedures at DC08.

Some nearby airports with instrument procedures:

KDCA - Ronald Reagan Washington National Airport (5 nm S)
KCGS - College Park Airport (5 nm NE)
KADW - Joint Base Andrews (10 nm SE)
KVKX - Potomac Airfield (11 nm S)
W00 - Freeway Airport (11 nm E)
W32 - Washington Executive Airport/Hyde Field (12 nm S)
KDAA - Davison Army Airfield (15 nm SW)
KFME - Tipton Airport (15 nm NE)
KGAI - Montgomery County Airpark (16 nm NW)
W50 - Davis Airport (20 nm N)
 
Loc | Ops | Rwys | IFR | FBO | Links
Com | Nav | Svcs | Stats | Notes
Area around DC08 (WHC Heliport)
 
Road maps at: MapQuest Bing Google
 
Aerial photo
No photo
 
Sectional chart

 
Airport distance calculator
Flying to WHC Heliport? Find the distance to fly.

From to DC08

Sunrise and sunset
Times for 06-Jun-2020
 Local
(UTC-4)
 Zulu
(UTC)
Morning civil twilight05:1209:12
Sunrise05:4409:44
Sunset20:3000:30
Evening civil twilight21:0201:02

Current date and time
Zulu (UTC)  06-Jun-2020 09:07:11
Local (UTC-4)  06-Jun-2020 05:07:11
 
METAR
KDCA 
5nm S 
060852Z 20003KT 10SM SCT006 BKN120 22/21 A2985 RMK AO2 SLP107 60000 T02220211 58002
KCGS 
5nm NE 
060855Z AUTO 00000KT 1 1/2SM VV007 A2984 RMK AO1 VIS 1V4
KADW 
10nm SE 
060856Z COR 26006KT 10SM BKN003 22/22 A2984 RMK AO2A SLP109 60000 T02180218 58002 $ COR 0857
KDAA 
15nm SW 
060756Z AUTO 00000KT 4SM BR BKN110 21/21 A2986 RMK AO2 SLP114 T02120207 TSNO $
KFME 
15nm NE 
060855Z AUTO 00000KT 2 1/2SM SCT001 18/18 A2986 RMK AO1
KGAI 
16nm NW 
060904Z AUTO 29003KT 1 3/4SM BR OVC002 21/20 A2987 RMK AO2
TAF
KDCA 
5nm S 
060543Z 0606/0712 21003KT P6SM BKN120 FM060800 24003KT 5SM BR BKN008 FM061200 28004KT P6SM SCT110 FM061400 29008G16KT P6SM SCT050 FM061800 31010G17KT P6SM SCT050 FM070000 33008KT P6SM FEW050
KADW 
10nm SE 
060400Z 0604/0707 28006KT 9999 SCT040 BKN250 QNH2987INS TEMPO 0604/0605 OVC003 BECMG 0608/0609 28006KT 6000 BR FEW040 BKN120 BKN250 QNH2985INS BECMG 0611/0612 30010KT 9999 NSW FEW030 QNH2982INS TEMPO 0617/0621 32010G20KT 9000 -SHRA VCTS FEW030CB SCT050 BECMG 0622/0623 31010KT 9999 SKC QNH2981INS TX32/0619Z TN18/0610Z
KDAA 
15nm SW 
060100Z 0601/0707 VRB06KT 8000 -RA SCT010 BKN020 QNH2984INS BECMG 0609/0610 30006KT 8000 BR FEW015 SCT020 QNH2985INS BECMG 0617/0618 29006KT 9000 -RA FEW030 SCT050 QNH2976INS TEMPO 0618/0624 28012G18KT 8000 -TSRA OVC010CB BECMG 0701/0702 34009KT 9999 NSW FEW030 SCT050 QNH2983INS TX34/0620Z TN21/0610Z LAST NO AMDS AFT 0601 NEXT 0809
NOTAMs
Click for the latest NOTAMs
NOTAMs are issued by the DoD/FAA and will open in a separate window not controlled by AirNav.

 

 
 

Would you like to see your business listed on this page?

 If your business provides an interesting product or service to pilots, flight crews, aircraft, or users of the WHC Heliport, you should consider listing it here.  To start the listing process, click on the button below
 
Add a business
 

Other Pages about WHC Heliport

Update a link
 
Copyright © AirNav, LLC. All rights reserved. Privacy Policy  Contact